createdAt,value
2018-03-18T00:01:32.002Z,6.4
2018-03-18T00:04:32.018Z,6.7
2018-03-18T00:07:31.951Z,6.4
2018-03-18T00:10:31.987Z,6.7
2018-03-18T00:13:31.985Z,6.7
2018-03-18T00:16:31.972Z,6.6
2018-03-18T00:19:32.499Z,7
2018-03-18T00:22:31.986Z,6.6
2018-03-18T00:25:31.955Z,6.5
2018-03-18T00:28:31.973Z,6.3
2018-03-18T00:31:31.965Z,6.6
2018-03-18T00:34:32.002Z,6.8
2018-03-18T00:37:31.938Z,7.3
2018-03-18T00:40:31.962Z,6.4
2018-03-18T00:43:31.987Z,6.4
2018-03-18T00:46:31.947Z,6.7
2018-03-18T00:49:31.945Z,6.4
2018-03-18T00:52:31.975Z,6.7
2018-03-18T00:55:31.972Z,6.5
2018-03-18T00:58:31.985Z,6.5
2018-03-18T01:01:31.992Z,6.5
2018-03-18T01:04:31.992Z,6.5
2018-03-18T01:07:31.971Z,6.3
2018-03-18T01:10:31.966Z,6.8
2018-03-18T01:13:31.984Z,6.9
2018-03-18T01:16:31.991Z,7.3
2018-03-18T01:19:32.002Z,6.2
2018-03-18T01:22:32.020Z,6.4
2018-03-18T01:25:31.952Z,6.8
2018-03-18T01:28:31.956Z,6.3
2018-03-18T01:31:31.918Z,6.9
2018-03-18T01:34:32.096Z,6.8
2018-03-18T01:37:31.966Z,6.4
2018-03-18T01:40:31.924Z,6.6
2018-03-18T01:43:31.967Z,6.5
2018-03-18T01:46:31.942Z,6.2
2018-03-18T01:49:31.982Z,6.3
2018-03-18T01:52:31.931Z,6.5
2018-03-18T01:55:31.949Z,6.5
2018-03-18T01:58:31.995Z,6.5
2018-03-18T02:01:31.919Z,6.5
2018-03-18T02:04:31.934Z,6.7
2018-03-18T02:07:31.918Z,7
2018-03-18T02:10:31.963Z,6.9
2018-03-18T02:13:31.958Z,6.2
2018-03-18T02:16:31.938Z,6.7
2018-03-18T02:19:31.933Z,6.6
2018-03-18T02:22:31.923Z,6.6
2018-03-18T02:25:31.986Z,6.1
2018-03-18T02:28:31.931Z,6.7
2018-03-18T02:31:31.994Z,6.7
2018-03-18T02:34:31.962Z,6.7
2018-03-18T02:37:31.973Z,6.2
2018-03-18T02:40:31.938Z,6.8
2018-03-18T02:43:31.916Z,6.4
2018-03-18T02:46:31.952Z,6.6
2018-03-18T02:49:32.045Z,6.4
2018-03-18T02:52:31.926Z,6.6
2018-03-18T02:55:31.948Z,6.7
2018-03-18T02:58:31.971Z,6.5
2018-03-18T03:01:31.949Z,6.6
2018-03-18T03:04:31.971Z,6.4
2018-03-18T03:07:31.935Z,6.4
2018-03-18T03:10:31.949Z,6.5
2018-03-18T03:13:31.905Z,6.5
2018-03-18T03:16:32.256Z,6.6
2018-03-18T03:19:31.919Z,6.4
2018-03-18T03:22:31.922Z,6.4
2018-03-18T03:25:31.919Z,6.8
2018-03-18T03:28:31.939Z,6.4
2018-03-18T03:31:31.964Z,6.3
2018-03-18T03:34:31.892Z,6.3
2018-03-18T03:37:31.906Z,6.1
2018-03-18T03:40:31.936Z,6.5
2018-03-18T03:43:31.881Z,6.2
2018-03-18T03:46:31.927Z,6.3
2018-03-18T03:49:31.933Z,6.4
2018-03-18T03:52:31.939Z,6.1
2018-03-18T03:55:31.919Z,6.9
2018-03-18T03:58:31.885Z,6.7
2018-03-18T04:01:31.890Z,6.6
2018-03-18T04:04:31.940Z,6.3
2018-03-18T04:07:31.914Z,6.3
2018-03-18T04:10:31.898Z,6.6
2018-03-18T04:13:31.906Z,6.5
2018-03-18T04:16:32.095Z,6.6
2018-03-18T04:19:31.906Z,6.4
2018-03-18T04:22:31.979Z,6.2
2018-03-18T04:25:31.881Z,6.4
2018-03-18T04:28:31.884Z,6.1
2018-03-18T04:31:31.928Z,6.4
2018-03-18T04:34:31.906Z,7
2018-03-18T04:37:31.931Z,6.3
2018-03-18T04:40:31.875Z,6.2
2018-03-18T04:43:31.913Z,6.1
2018-03-18T04:46:31.867Z,6.4
2018-03-18T04:49:31.975Z,6.5
2018-03-18T04:52:31.876Z,6.3
2018-03-18T04:55:31.883Z,6.5
2018-03-18T04:58:31.868Z,6.5
2018-03-18T05:01:31.922Z,6.3
2018-03-18T05:04:31.899Z,6.3
2018-03-18T05:07:31.854Z,6.2
2018-03-18T05:10:31.862Z,5.9
2018-03-18T05:13:31.887Z,6.1
2018-03-18T05:16:31.928Z,6.2
2018-03-18T05:19:31.890Z,6.3
2018-03-18T05:22:31.896Z,5.9
2018-03-18T05:25:31.893Z,5.9
2018-03-18T05:28:31.881Z,5.9
2018-03-18T05:31:31.872Z,5.6
2018-03-18T05:34:31.924Z,5.9
2018-03-18T05:37:31.854Z,6.6
2018-03-18T05:40:31.896Z,5.9
2018-03-18T05:43:31.930Z,6.1
2018-03-18T05:46:31.860Z,6
2018-03-18T05:49:31.844Z,5.8
2018-03-18T05:52:31.864Z,5.9
2018-03-18T05:55:31.905Z,5.8
2018-03-18T05:58:31.872Z,5.7
2018-03-18T06:01:31.851Z,5.7
2018-03-18T06:04:31.856Z,5.9
2018-03-18T06:07:31.893Z,5.9
2018-03-18T06:10:31.901Z,5.3
2018-03-18T06:13:31.921Z,5.5
2018-03-18T06:16:31.849Z,5.7
2018-03-18T06:19:31.899Z,5.8
2018-03-18T06:22:31.845Z,5.5
2018-03-18T06:25:31.870Z,5.8
2018-03-18T06:28:31.870Z,5.8
2018-03-18T06:31:32.417Z,5.3
2018-03-18T06:34:31.887Z,5.7
2018-03-18T06:37:32.355Z,5.8
2018-03-18T06:40:31.875Z,6
2018-03-18T06:43:31.836Z,5.8
2018-03-18T06:46:31.852Z,6
2018-03-18T06:49:31.831Z,5.7
2018-03-18T06:52:31.890Z,5.5
2018-03-18T06:55:31.844Z,5.7
2018-03-18T06:58:31.917Z,5.4
2018-03-18T07:01:32.133Z,5.6
2018-03-18T07:04:31.861Z,5.5
2018-03-18T07:07:31.871Z,5.7
2018-03-18T07:10:31.819Z,5.8
2018-03-18T07:13:31.863Z,5.7
2018-03-18T07:16:31.848Z,5.8
2018-03-18T07:19:31.831Z,5.8
2018-03-18T07:22:31.842Z,5.3
2018-03-18T07:25:32.281Z,6.4
2018-03-18T07:28:31.843Z,5.8
2018-03-18T07:31:31.860Z,6.3
2018-03-18T07:34:31.849Z,5.9
2018-03-18T07:37:31.830Z,5.9
2018-03-18T07:40:31.862Z,5.8
2018-03-18T07:43:31.861Z,5.2
2018-03-18T07:46:31.820Z,6.2
2018-03-18T07:49:31.811Z,5.7
2018-03-18T07:52:31.895Z,5.7
2018-03-18T07:55:31.810Z,5.7
2018-03-18T07:58:31.827Z,5.8
2018-03-18T08:01:31.830Z,5.5
2018-03-18T08:04:31.861Z,5.7
2018-03-18T08:07:32.413Z,5.5
2018-03-18T08:10:31.846Z,5.9
2018-03-18T08:13:31.817Z,5.6
2018-03-18T08:16:31.839Z,5.6
2018-03-18T08:19:31.829Z,5.3
2018-03-18T08:22:31.834Z,5.8
2018-03-18T08:25:31.810Z,5.9
2018-03-18T08:28:31.825Z,5.8
2018-03-18T08:31:31.827Z,5.5
2018-03-18T08:34:31.818Z,5.5
2018-03-18T08:37:31.828Z,6.4
2018-03-18T08:40:31.806Z,5.8
2018-03-18T08:43:31.810Z,5.6
2018-03-18T08:46:31.804Z,5.6
2018-03-18T08:49:31.903Z,5.6
2018-03-18T08:52:31.912Z,5.9
2018-03-18T08:55:31.843Z,5.6
2018-03-18T08:58:31.802Z,5.7
2018-03-18T09:01:31.829Z,6.7
2018-03-18T09:04:31.786Z,6.3
2018-03-18T09:09:48.177Z,5.4
2018-03-18T09:12:48.151Z,8.2
2018-03-18T09:15:48.142Z,5.6
2018-03-18T09:18:48.143Z,8.5
2018-03-18T09:21:48.160Z,8.5
2018-03-18T09:24:48.171Z,7.2
2018-03-18T09:27:48.155Z,6.1
2018-03-18T09:30:48.150Z,7.2
2018-03-18T09:33:48.328Z,8.6
2018-03-18T09:36:48.133Z,7.3
2018-03-18T09:39:48.188Z,7.7
2018-03-18T09:42:48.156Z,8.2
2018-03-18T09:45:48.164Z,6.2
2018-03-18T09:48:48.489Z,7.1
2018-03-18T09:51:48.161Z,7.8
2018-03-18T09:54:48.145Z,6.2
2018-03-18T09:57:48.196Z,6
2018-03-18T10:00:48.181Z,6.5
2018-03-18T10:03:48.131Z,8.6
2018-03-18T10:06:48.146Z,8.1
2018-03-18T10:09:48.168Z,7.6
2018-03-18T10:12:48.143Z,7.3
2018-03-18T10:15:48.134Z,7.6
2018-03-18T10:18:48.148Z,6.3
2018-03-18T10:21:48.278Z,7.2
2018-03-18T10:24:48.157Z,7.9
2018-03-18T10:27:48.139Z,9
2018-03-18T10:30:48.123Z,7.6
2018-03-18T10:33:48.154Z,9.2
2018-03-18T10:36:48.153Z,8
2018-03-18T10:39:48.138Z,9.3
2018-03-18T10:42:48.293Z,10.6
2018-03-18T10:45:48.161Z,9.5
2018-03-18T10:48:48.233Z,8.3
2018-03-18T10:51:48.126Z,10.6
2018-03-18T10:54:48.156Z,9.3
2018-03-18T10:57:48.132Z,7.5
2018-03-18T11:00:48.108Z,11.2
2018-03-18T11:03:48.132Z,9.4
2018-03-18T11:06:48.129Z,9.4
2018-03-18T11:09:48.107Z,10.4
2018-03-18T11:12:48.181Z,9.3
2018-03-18T11:15:48.130Z,11.7
2018-03-18T11:18:48.152Z,9.5
2018-03-18T11:21:48.120Z,12.4
2018-03-18T11:24:48.280Z,10.4
2018-03-18T11:33:04.334Z,9.7
2018-03-18T11:36:04.500Z,8.8
2018-03-18T11:39:04.378Z,8
2018-03-18T11:42:04.618Z,9.9
2018-03-18T12:05:01.668Z,8.6
2018-03-18T12:08:01.686Z,7
2018-03-18T12:11:01.674Z,7.2
2018-03-18T12:14:01.714Z,8.9
2018-03-18T12:17:01.659Z,10.4
2018-03-18T12:20:01.668Z,11.9
2018-03-18T12:23:01.699Z,10.4
2018-03-18T12:26:01.732Z,9.3
2018-03-18T12:29:01.777Z,9
2018-03-18T12:32:01.723Z,8.8
2018-03-18T12:35:01.667Z,8.6
2018-03-18T12:38:01.752Z,7.8
2018-03-18T12:41:01.922Z,13.6
2018-03-18T12:44:01.783Z,7.8
2018-03-18T12:47:01.666Z,7.1
2018-03-18T12:50:01.661Z,8.8
2018-03-18T12:53:02.066Z,9.2
2018-03-18T12:56:01.656Z,7.2
2018-03-18T12:59:01.708Z,10.6
2018-03-18T13:02:01.752Z,11.8
2018-03-18T13:05:01.706Z,7.9
2018-03-18T13:08:01.661Z,7.7
2018-03-18T13:11:01.763Z,7.4
2018-03-18T13:14:01.776Z,5.6
2018-03-18T13:17:01.650Z,8
2018-03-18T13:20:01.645Z,7.7
2018-03-18T13:23:01.736Z,6.3
2018-03-18T13:26:02.020Z,6.8
2018-03-18T13:29:01.895Z,6.2
2018-03-18T13:32:01.678Z,6.5
2018-03-18T13:35:01.638Z,7.7
2018-03-18T13:38:01.992Z,7
2018-03-18T13:41:01.696Z,6.7
2018-03-18T13:44:01.773Z,8.3
2018-03-18T13:47:01.663Z,6.5
2018-03-18T13:50:01.658Z,7.2
2018-03-18T13:53:01.755Z,7.3
2018-03-18T13:56:01.662Z,6.7
2018-03-18T13:59:01.642Z,7.3
2018-03-18T14:17:34.919Z,6.5
2018-03-18T14:20:34.883Z,5.7
2018-03-18T14:23:34.913Z,6.9
2018-03-18T14:26:34.965Z,7
2018-03-18T14:29:34.934Z,5.6
2018-03-18T14:32:34.883Z,8
2018-03-18T14:35:34.921Z,5.7
2018-03-18T14:38:34.866Z,7.5
2018-03-18T14:41:34.909Z,8.7
2018-03-18T14:44:34.917Z,6.4
2018-03-18T14:47:34.906Z,7.9
2018-03-18T14:50:34.877Z,7.2
2018-03-18T14:53:34.919Z,7.6
2018-03-18T14:56:34.871Z,6.3
2018-03-18T14:59:34.988Z,7.3
2018-03-18T15:02:34.855Z,5.9
2018-03-18T15:05:34.900Z,6.4
2018-03-18T15:08:34.867Z,6.4
2018-03-18T15:11:34.912Z,6
2018-03-18T15:14:34.907Z,6.9
2018-03-18T15:17:34.920Z,6.5
2018-03-18T15:20:34.890Z,6
2018-03-18T15:23:34.874Z,5.8
2018-03-18T15:26:34.907Z,5.3
2018-03-18T15:29:34.855Z,5.7
2018-03-18T15:32:34.852Z,8
2018-03-18T15:35:34.852Z,7.3
2018-03-18T15:38:34.884Z,7.9
2018-03-18T15:41:34.888Z,8.1
2018-03-18T15:44:34.885Z,5.9
2018-03-18T15:47:34.862Z,7.1
2018-03-18T15:50:34.849Z,6.2
2018-03-18T15:53:34.867Z,6.1
2018-03-18T15:56:34.979Z,5.4
2018-03-18T15:59:34.854Z,6.4
2018-03-18T16:02:34.858Z,6.2
2018-03-18T16:05:34.850Z,8.7
2018-03-18T16:08:34.864Z,7.7
2018-03-18T16:11:34.872Z,10.9
2018-03-18T16:14:35.009Z,8
2018-03-18T16:17:34.956Z,7.3
2018-03-18T16:20:34.860Z,6.9
2018-03-18T16:23:34.902Z,12.2
2018-03-18T16:26:34.845Z,9
2018-03-18T16:29:34.890Z,14.8
2018-03-18T16:32:34.839Z,9.9
2018-03-18T16:35:34.850Z,12.4
2018-03-18T16:38:34.847Z,10.1
2018-03-18T16:41:34.947Z,12.1
2018-03-18T16:44:34.850Z,10.9
2018-03-18T16:47:34.838Z,9.3
2018-03-18T16:56:49.976Z,9.9
2018-03-18T16:59:50.002Z,11.9
2018-03-18T17:02:49.965Z,10.9
2018-03-18T17:05:49.982Z,8
2018-03-18T17:23:52.329Z,10
2018-03-18T17:26:52.334Z,9.8
2018-03-18T17:29:52.341Z,7.5
2018-03-18T17:32:52.377Z,10.6
2018-03-18T17:35:52.338Z,8.2
2018-03-18T17:38:52.349Z,8.8
2018-03-18T17:41:52.330Z,9.9
2018-03-18T17:44:52.710Z,7.6
2018-03-18T17:47:52.318Z,7.5
2018-03-18T17:50:52.583Z,6.5
2018-03-18T17:53:52.336Z,7.2
2018-03-18T17:56:52.331Z,6.5
2018-03-18T17:59:52.325Z,7.9
2018-03-18T18:02:52.339Z,8.8
2018-03-18T18:05:52.333Z,8.1
2018-03-18T18:08:52.346Z,6.2
2018-03-18T18:11:52.357Z,6.8
2018-03-18T18:14:52.329Z,5.7
2018-03-18T18:17:52.387Z,7.2
2018-03-18T18:20:52.359Z,6.9
2018-03-18T18:23:52.378Z,6.5
2018-03-18T18:26:52.414Z,5.7
2018-03-18T18:29:52.332Z,7.7
2018-03-18T18:32:52.415Z,5.7
2018-03-18T18:35:52.325Z,6.7
2018-03-18T18:38:52.349Z,6.5
2018-03-18T18:41:52.310Z,5.2
2018-03-18T18:44:52.318Z,6
2018-03-18T18:47:52.345Z,6.3
2018-03-18T18:50:52.314Z,6.3
2018-03-18T18:53:52.329Z,6.6
2018-03-18T18:56:52.325Z,5.9
2018-03-18T18:59:52.320Z,6.8
2018-03-18T19:02:52.726Z,5.4
2018-03-18T19:05:52.349Z,6.8
2018-03-18T19:08:52.362Z,10.6
2018-03-18T19:13:39.007Z,6.8
2018-03-18T19:16:39.290Z,12.2
2018-03-18T19:19:39.279Z,8.1
2018-03-18T19:22:39.278Z,9.9
2018-03-18T19:25:38.418Z,9.6
2018-03-18T19:28:38.296Z,7.7
2018-03-18T19:31:38.309Z,8.5
2018-03-18T19:34:38.290Z,7.6
2018-03-18T19:37:38.294Z,6.4
2018-03-18T19:40:38.286Z,7.7
2018-03-18T19:43:38.444Z,6
2018-03-18T19:46:38.293Z,7.2
2018-03-18T19:49:38.297Z,6.9
2018-03-18T19:52:38.297Z,10.1
2018-03-18T19:55:38.341Z,7.2
2018-03-18T19:58:38.536Z,10.1
2018-03-18T20:01:38.298Z,8.9
2018-03-18T20:04:38.282Z,6.3
2018-03-18T20:07:38.291Z,8.2
2018-03-18T20:10:38.350Z,8.9
2018-03-18T20:13:38.412Z,7.4
2018-03-18T20:16:38.275Z,6.4
2018-03-18T20:19:38.280Z,6.1
2018-03-18T20:22:38.300Z,7.8
2018-03-18T20:25:38.315Z,7.2
2018-03-18T20:28:38.388Z,8.1
2018-03-18T20:31:38.238Z,10.9
2018-03-18T20:34:38.347Z,9.5
2018-03-18T20:37:38.288Z,6.4
2018-03-18T20:40:38.500Z,7.3
2018-03-18T20:43:38.374Z,6.2
2018-03-18T20:46:38.302Z,6.6
2018-03-18T20:49:38.265Z,5.9
2018-03-18T20:52:38.363Z,5.7
2018-03-18T20:55:38.250Z,7.3
2018-03-18T20:58:38.256Z,8.3
2018-03-18T21:01:38.302Z,5.5
2018-03-18T21:04:38.258Z,6.1
2018-03-18T21:07:38.274Z,5.6
2018-03-18T21:10:38.278Z,6.2
2018-03-18T21:13:38.565Z,5.9
2018-03-18T21:16:38.238Z,5.9
2018-03-18T21:19:38.192Z,6.2
2018-03-18T21:22:38.298Z,6.2
2018-03-18T21:25:38.236Z,5.8
2018-03-18T21:28:38.554Z,6.2
2018-03-18T21:31:38.221Z,6.5
2018-03-18T21:34:38.240Z,5.8
2018-03-18T21:37:38.576Z,5.7
2018-03-18T21:40:38.217Z,6.7
2018-03-18T21:43:38.217Z,6.1
2018-03-18T21:46:38.207Z,6.2
2018-03-18T21:49:38.208Z,6.7
2018-03-18T21:52:38.210Z,6.3
2018-03-18T21:55:38.668Z,5.7
2018-03-18T21:58:38.949Z,5.9
2018-03-18T22:01:38.228Z,5.9
2018-03-18T22:04:41.627Z,5.9
2018-03-18T22:07:38.212Z,6
2018-03-18T22:10:38.191Z,5.7
2018-03-18T22:13:38.384Z,5.3
2018-03-18T22:16:38.188Z,5.4
2018-03-18T22:19:38.575Z,5.6
2018-03-18T22:22:38.183Z,5.8
2018-03-18T22:25:38.636Z,5.8
2018-03-18T22:28:38.215Z,5.5
2018-03-18T22:31:38.207Z,5.8
2018-03-18T22:34:38.177Z,5.6
2018-03-18T22:37:38.225Z,5.2
2018-03-18T22:40:38.180Z,5.6
2018-03-18T22:43:38.205Z,5.6
2018-03-18T22:46:38.186Z,5.6
2018-03-18T22:49:38.184Z,5.1
2018-03-18T22:52:38.231Z,5.7
2018-03-18T22:55:38.182Z,5.8
2018-03-18T22:58:38.174Z,5
2018-03-18T23:01:38.177Z,6
2018-03-18T23:04:38.180Z,5.4
2018-03-18T23:07:38.184Z,5.2
2018-03-18T23:10:38.181Z,5
2018-03-18T23:13:38.165Z,5.1
2018-03-18T23:16:38.185Z,5.2
2018-03-18T23:19:38.197Z,5.6
2018-03-18T23:22:38.175Z,5.4
2018-03-18T23:25:38.174Z,5.5
2018-03-18T23:28:38.177Z,5.7
2018-03-18T23:31:38.153Z,5.4
2018-03-18T23:34:38.198Z,6
2018-03-18T23:37:38.217Z,5.6
2018-03-18T23:40:38.168Z,5.5
2018-03-18T23:43:38.492Z,5.2
2018-03-18T23:46:38.210Z,5.4
2018-03-18T23:49:38.169Z,5.8
2018-03-18T23:52:38.145Z,5.1
2018-03-18T23:55:38.177Z,6.9
2018-03-18T23:58:38.163Z,5.2
